Time;durP1;ratioP1;P1;durP2;ratioP2;P2;SDS_P1;SDS_P2;PMS_P1;PMS_P2;Temp;Humidity;BMP_temperature;BMP_pressure;BME280_temperature;BME280_humidity;BME280_pressure;Samples;Min_cycle;Max_cycle;Signal;HPM_P1;HPM_P2
2021/06/02 00:01:42;;;;;;;51.20;34.80;;;13.10;99.90;;;;;;5094246;28;20401;-81
2021/06/02 00:04:09;;;;;;;74.80;50.25;;;13.00;99.90;;;;;;5095472;28;20039;-77
2021/06/02 00:06:35;;;;;;;73.00;49.03;;;12.90;99.90;;;;;;5099613;28;20016;-80
2021/06/02 00:09:02;;;;;;;61.97;44.25;;;13.10;99.90;;;;;;5098236;28;20381;-76
2021/06/02 00:11:28;;;;;;;57.30;41.22;;;13.10;99.90;;;;;;5095573;28;20032;-77
2021/06/02 00:13:55;;;;;;;48.63;36.58;;;13.20;99.90;;;;;;5098836;28;20024;-76
2021/06/02 00:16:24;;;;;;;34.80;27.35;;;13.20;99.90;;;;;;5101309;28;20531;-81
2021/06/02 00:18:51;;;;;;;16.58;10.70;;;13.30;99.90;;;;;;5099078;28;20024;-80
2021/06/02 00:21:18;;;;;;;14.25;8.45;;;13.10;99.90;;;;;;5098474;28;20293;-83
2021/06/02 00:23:44;;;;;;;13.38;8.15;;;12.90;99.90;;;;;;5098007;28;20030;-82
2021/06/02 00:26:13;;;;;;;11.00;8.05;;;13.00;99.90;;;;;;5098250;28;20448;-78
2021/06/02 00:28:40;;;;;;;11.93;7.85;;;13.00;99.90;;;;;;5098563;28;20012;-80
2021/06/02 00:31:06;;;;;;;10.63;7.70;;;12.90;99.90;;;;;;5099075;28;20027;-76
2021/06/02 00:33:32;;;;;;;10.45;7.25;;;12.90;99.90;;;;;;5098596;28;20020;-82
2021/06/02 00:36:01;;;;;;;13.50;8.10;;;13.00;99.90;;;;;;5096262;28;20188;-77
2021/06/02 00:38:27;;;;;;;14.30;7.95;;;12.90;99.90;;;;;;5100363;28;20028;-81
2021/06/02 00:40:54;;;;;;;13.52;8.07;;;12.90;99.90;;;;;;5096230;28;20027;-81
2021/06/02 00:43:20;;;;;;;12.90;7.82;;;12.80;99.90;;;;;;5096854;28;20050;-77
2021/06/02 00:45:50;;;;;;;9.85;7.55;;;12.80;99.90;;;;;;5097050;28;20023;-80
2021/06/02 00:48:18;;;;;;;11.63;7.45;;;12.80;99.90;;;;;;5097168;28;20032;-82
2021/06/02 00:50:46;;;;;;;13.63;8.07;;;12.70;99.90;;;;;;5095807;28;20049;-79
2021/06/02 00:53:12;;;;;;;9.70;7.80;;;12.70;99.90;;;;;;5096917;28;20016;-77
2021/06/02 00:55:39;;;;;;;11.13;7.30;;;12.70;99.90;;;;;;5097184;28;20106;-82
2021/06/02 00:58:09;;;;;;;14.45;7.82;;;12.50;99.90;;;;;;5097059;28;20024;-81
2021/06/02 01:00:36;;;;;;;9.95;7.25;;;12.40;99.90;;;;;;5098984;28;20027;-76
2021/06/02 01:03:05;;;;;;;10.30;7.57;;;12.40;99.90;;;;;;5095572;28;20359;-81
2021/06/02 01:05:32;;;;;;;12.98;7.30;;;12.40;99.90;;;;;;5098137;28;20035;-80
2021/06/02 01:08:03;;;;;;;11.63;7.63;;;12.50;99.90;;;;;;5099062;28;20020;-76
2021/06/02 01:10:30;;;;;;;11.07;7.22;;;12.60;99.90;;;;;;5097980;28;20373;-77
2021/06/02 01:12:57;;;;;;;10.50;7.30;;;12.50;99.90;;;;;;5098138;28;20351;-81
2021/06/02 01:15:25;;;;;;;8.90;7.15;;;12.60;99.90;;;;;;5097371;28;20024;-77
2021/06/02 01:17:51;;;;;;;14.50;7.68;;;12.70;99.90;;;;;;5096653;28;20021;-80
2021/06/02 01:20:18;;;;;;;10.65;6.88;;;12.70;99.90;;;;;;5097607;28;20024;-82
2021/06/02 01:22:45;;;;;;;12.52;7.03;;;12.60;99.90;;;;;;5096261;28;20504;-77
2021/06/02 01:25:17;;;;;;;8.95;7.18;;;12.50;99.90;;;;;;5096569;28;20101;-81
2021/06/02 01:27:47;;;;;;;13.27;7.25;;;12.40;99.90;;;;;;5097284;28;20370;-81
2021/06/02 01:30:21;;;;;;;10.48;7.57;;;12.50;99.90;;;;;;5095766;28;20046;-82
2021/06/02 01:33:28;;;;;;;12.50;7.30;;;12.50;99.90;;;;;;5098502;28;20378;-82
2021/06/02 01:36:02;;;;;;;14.57;9.30;;;12.50;99.90;;;;;;5097433;28;20032;-81
2021/06/02 01:38:31;;;;;;;21.08;13.25;;;12.60;99.90;;;;;;5095647;28;20031;-76
2021/06/02 01:41:15;;;;;;;19.40;12.20;;;12.40;99.90;;;;;;5097608;28;20035;-78
2021/06/02 01:44:08;;;;;;;16.83;10.10;;;12.30;99.90;;;;;;5096159;28;20448;-79
2021/06/02 01:46:50;;;;;;;11.85;7.93;;;12.20;99.90;;;;;;5098828;28;20023;-76
2021/06/02 01:49:18;;;;;;;11.75;7.95;;;12.20;99.90;;;;;;5097428;28;20024;-76
2021/06/02 01:52:11;;;;;;;11.18;7.43;;;11.90;99.90;;;;;;5099861;28;20028;-76
2021/06/02 01:54:55;;;;;;;12.77;8.10;;;11.90;99.90;;;;;;5096819;28;20028;-79
2021/06/02 01:57:54;;;;;;;15.52;7.60;;;11.80;99.90;;;;;;5096846;28;20024;-81
2021/06/02 02:00:41;;;;;;;11.02;7.55;;;11.90;99.90;;;;;;5098946;28;20036;-77
2021/06/02 02:03:25;;;;;;;11.38;7.97;;;12.00;99.90;;;;;;5097534;28;20052;-81
2021/06/02 02:06:18;;;;;;;14.93;8.00;;;12.00;99.90;;;;;;5098849;28;20020;-82
2021/06/02 02:09:05;;;;;;;12.10;8.25;;;12.10;99.90;;;;;;5059396;28;20025;-76
2021/06/02 02:11:43;;;;;;;12.07;7.75;;;12.10;99.90;;;;;;5063114;28;20017;-80
2021/06/02 02:14:30;;;;;;;12.70;7.80;;;11.90;99.90;;;;;;5078180;28;20112;-76
2021/06/02 02:16:58;;;;;;;12.15;7.93;;;11.70;99.90;;;;;;5077847;28;20036;-81
2021/06/02 02:19:53;;;;;;;12.10;7.97;;;11.70;99.90;;;;;;5061615;28;20033;-79
2021/06/02 02:22:22;;;;;;;10.15;7.65;;;11.70;99.90;;;;;;5076580;28;20025;-81
2021/06/02 02:25:10;;;;;;;11.95;7.63;;;11.60;99.90;;;;;;5058950;28;20490;-77
2021/06/02 02:27:55;;;;;;;9.82;7.22;;;11.50;99.90;;;;;;5052629;28;20107;-82
2021/06/02 02:30:56;;;;;;;10.93;7.10;;;11.40;99.90;;;;;;5060603;28;20021;-79
2021/06/02 02:33:27;;;;;;;10.38;7.25;;;11.40;99.90;;;;;;5059732;28;20028;-76
2021/06/02 02:36:03;;;;;;;11.32;7.15;;;11.40;99.90;;;;;;5058930;28;20024;-76
2021/06/02 02:38:51;;;;;;;10.57;7.75;;;11.20;99.90;;;;;;5057371;28;20392;-76
2021/06/02 02:41:22;;;;;;;9.60;6.97;;;11.30;99.90;;;;;;5058632;28;20108;-81
2021/06/02 02:44:13;;;;;;;10.95;6.95;;;11.30;99.90;;;;;;5073329;28;20041;-75
2021/06/02 02:46:59;;;;;;;10.63;7.60;;;11.40;99.90;;;;;;5096152;28;20036;-76
2021/06/02 02:50:02;;;;;;;11.73;7.65;;;11.40;99.90;;;;;;5099228;28;20024;-82
2021/06/02 02:52:47;;;;;;;11.80;7.10;;;11.50;99.90;;;;;;5095416;28;20032;-83
2021/06/02 02:55:29;;;;;;;11.30;7.10;;;11.60;99.90;;;;;;5095388;28;20343;-76
2021/06/02 02:58:07;;;;;;;13.68;7.50;;;11.60;99.90;;;;;;5097699;28;20032;-81
2021/06/02 03:00:48;;;;;;;12.02;7.38;;;11.60;99.90;;;;;;5095049;28;20469;-79
2021/06/02 03:03:30;;;;;;;14.70;6.70;;;11.60;99.90;;;;;;5094683;28;20369;-79
2021/06/02 03:06:25;;;;;;;12.27;7.35;;;11.60;99.90;;;;;;5096626;28;20540;-81
2021/06/02 03:09:02;;;;;;;;;;;11.60;99.90;;;;;;5096910;28;20050;-81
2021/06/02 03:11:39;;;;;;;11.40;7.18;;;11.50;99.90;;;;;;5094747;28;19912;-79
2021/06/02 03:14:31;;;;;;;13.73;7.68;;;11.50;99.90;;;;;;5094144;28;20020;-78
2021/06/02 03:17:21;;;;;;;12.82;7.47;;;11.40;99.90;;;;;;5093763;28;20059;-75
2021/06/02 03:20:06;;;;;;;12.23;7.47;;;11.50;99.90;;;;;;5093954;28;20058;-81
2021/06/02 03:22:44;;;;;;;12.65;6.97;;;11.60;99.90;;;;;;5096680;28;20485;-81
2021/06/02 03:25:36;;;;;;;12.52;6.82;;;11.60;99.90;;;;;;5095469;28;20044;-75
2021/06/02 03:28:39;;;;;;;13.50;7.13;;;11.60;99.90;;;;;;5093317;28;20032;-81
2021/06/02 03:31:35;;;;;;;13.73;7.18;;;11.60;99.90;;;;;;5094286;28;20047;-76
2021/06/02 03:34:25;;;;;;;13.77;7.63;;;11.60;99.90;;;;;;5096076;28;20027;-80
2021/06/02 03:37:31;;;;;;;11.95;7.43;;;11.60;99.90;;;;;;5096323;28;20032;-77
2021/06/02 03:40:03;;;;;;;11.60;7.20;;;11.70;99.90;;;;;;5095630;28;20020;-75
2021/06/02 03:42:52;;;;;;;11.35;7.50;;;11.80;99.90;;;;;;5096172;28;20020;-76
2021/06/02 03:45:55;;;;;;;12.63;8.02;;;11.70;99.90;;;;;;5098080;28;20477;-79
2021/06/02 03:48:21;;;;;;;11.32;7.50;;;11.60;99.90;;;;;;5096249;28;20158;-80
2021/06/02 03:51:09;;;;;;;12.82;8.63;;;11.70;99.90;;;;;;5097241;28;20027;-81
2021/06/02 03:54:29;;;;;;;14.13;7.78;;;11.70;99.90;;;;;;5097731;28;20035;-81
2021/06/02 03:57:20;;;;;;;14.88;6.93;;;11.90;99.90;;;;;;5059209;28;20062;-81
2021/06/02 04:00:11;;;;;;;11.55;7.55;;;11.80;99.90;;;;;;5099062;28;20103;-77
2021/06/02 04:02:56;;;;;;;10.98;8.13;;;11.90;99.90;;;;;;5097078;28;20662;-76
2021/06/02 04:05:47;;;;;;;10.93;6.70;;;11.90;99.90;;;;;;5098141;28;20016;-82
2021/06/02 04:08:48;;;;;;;17.05;7.30;;;12.00;99.90;;;;;;5098487;28;20035;-83
2021/06/02 04:11:18;;;;;;;12.02;6.97;;;12.10;99.90;;;;;;5099769;28;20078;-81
2021/06/02 04:13:56;;;;;;;11.30;6.47;;;12.30;99.90;;;;;;5098232;28;20103;-81
2021/06/02 04:16:28;;;;;;;10.68;6.95;;;12.40;99.90;;;;;;5100237;28;20020;-80
2021/06/02 04:18:55;;;;;;;10.73;6.63;;;12.40;99.90;;;;;;5097166;28;20032;-79
2021/06/02 04:21:23;;;;;;;12.27;6.60;;;12.50;99.90;;;;;;5099131;28;20016;-80
2021/06/02 04:23:52;;;;;;;10.23;6.03;;;12.50;99.90;;;;;;5099528;28;20462;-76
2021/06/02 04:26:18;;;;;;;9.48;6.13;;;12.60;99.90;;;;;;5098614;28;20056;-81
2021/06/02 04:28:46;;;;;;;9.65;6.15;;;12.80;99.90;;;;;;5097905;28;20085;-81
2021/06/02 04:31:14;;;;;;;11.05;6.65;;;12.80;99.90;;;;;;5098462;28;20110;-81
2021/06/02 04:33:43;;;;;;;12.65;6.82;;;12.90;99.90;;;;;;5098392;28;20370;-79
2021/06/02 04:36:12;;;;;;;15.00;7.68;;;13.10;99.90;;;;;;5100165;28;20132;-76
2021/06/02 04:38:39;;;;;;;9.65;6.88;;;13.20;99.90;;;;;;5098352;28;20051;-76
2021/06/02 04:41:07;;;;;;;13.50;6.93;;;13.10;99.90;;;;;;5098172;28;20020;-76
2021/06/02 04:43:40;;;;;;;10.90;6.80;;;13.00;99.90;;;;;;5097934;28;20020;-83
2021/06/02 04:46:08;;;;;;;11.60;6.60;;;13.10;99.90;;;;;;5098986;28;20016;-76
2021/06/02 04:48:34;;;;;;;10.48;6.15;;;13.20;99.90;;;;;;5097424;28;20012;-82
2021/06/02 04:51:37;;;;;;;10.02;5.38;;;13.30;99.90;;;;;;5095813;28;20059;-80
2021/06/02 04:54:40;;;;;;;10.38;5.90;;;13.40;99.90;;;;;;5098509;28;20024;-82
2021/06/02 04:57:37;;;;;;;12.63;6.05;;;13.60;99.90;;;;;;5095403;28;20029;-81
2021/06/02 05:00:14;;;;;;;9.68;6.30;;;13.60;99.90;;;;;;5096556;28;20016;-83
2021/06/02 05:03:17;;;;;;;9.57;6.10;;;13.70;99.90;;;;;;5097111;28;20020;-79
2021/06/02 05:06:35;;;;;;;8.57;5.90;;;13.80;99.90;;;;;;5095689;28;20413;-81
2021/06/02 05:09:40;;;;;;;12.23;6.47;;;14.00;99.90;;;;;;5095810;28;20020;-81
2021/06/02 05:12:45;;;;;;;11.77;6.38;;;14.10;99.90;;;;;;5074567;28;20039;-81
2021/06/02 05:15:39;;;;;;;11.55;5.93;;;14.10;99.90;;;;;;5097088;28;20054;-80
2021/06/02 05:18:35;;;;;;;9.67;5.40;;;14.30;99.90;;;;;;5095577;28;20035;-81
2021/06/02 05:24:26;;;;;;;7.32;5.07;;;14.50;99.90;;;;;;5098440;28;20028;-83
2021/06/02 05:27:30;;;;;;;7.82;5.47;;;14.60;99.90;;;;;;5098192;28;20084;-78
2021/06/02 05:30:02;;;;;;;7.43;4.97;;;14.70;99.90;;;;;;5098316;28;20027;-84
2021/06/02 05:32:40;;;;;;;9.50;5.45;;;14.90;99.90;;;;;;5095331;28;20034;-78
2021/06/02 05:35:33;;;;;;;8.70;5.47;;;14.90;99.90;;;;;;5096826;28;20370;-79
2021/06/02 05:38:17;;;;;;;10.98;6.25;;;15.00;99.90;;;;;;5097421;28;20081;-77
2021/06/02 05:41:14;;;;;;;13.90;6.07;;;15.00;99.90;;;;;;5096702;28;20077;-77
2021/06/02 05:44:07;;;;;;;8.75;5.53;;;15.00;99.90;;;;;;5097292;28;20028;-78
2021/06/02 05:46:54;;;;;;;7.20;5.15;;;15.20;99.90;;;;;;5099200;28;20020;-79
2021/06/02 05:49:45;;;;;;;12.30;5.60;;;15.30;99.90;;;;;;5098975;28;20048;-81
2021/06/02 05:52:39;;;;;;;11.18;5.50;;;15.40;99.90;;;;;;5113541;28;20049;-82
2021/06/02 05:55:20;;;;;;;11.48;5.57;;;15.70;99.90;;;;;;5113877;28;20412;-77
2021/06/02 05:58:02;;;;;;;8.73;5.32;;;15.70;99.90;;;;;;5118634;28;20020;-78
2021/06/02 06:00:47;;;;;;;12.52;5.93;;;15.70;99.90;;;;;;5121893;28;20023;-78
2021/06/02 06:03:16;;;;;;;7.55;5.55;;;15.90;99.60;;;;;;5120006;27;20047;-76
2021/06/02 06:05:42;;;;;;;8.95;5.40;;;16.20;99.40;;;;;;5116811;28;20007;-77
2021/06/02 06:08:54;;;;;;;11.02;5.93;;;16.20;99.70;;;;;;5116321;28;20465;-77
2021/06/02 06:11:49;;;;;;;15.23;5.68;;;16.20;98.90;;;;;;5115676;28;20378;-76
2021/06/02 06:14:40;;;;;;;8.48;6.05;;;16.50;98.70;;;;;;5116167;28;20024;-77
2021/06/02 06:17:16;;;;;;;8.93;6.05;;;16.40;98.60;;;;;;5119667;28;20026;-79
2021/06/02 06:20:24;;;;;;;9.90;6.22;;;16.60;99.00;;;;;;5119622;28;20051;-82
2021/06/02 06:23:14;;;;;;;8.85;5.82;;;16.70;98.00;;;;;;5119194;28;20071;-79
2021/06/02 06:25:50;;;;;;;13.75;7.78;;;16.90;98.00;;;;;;5113372;28;20054;-76
2021/06/02 06:28:55;;;;;;;10.75;6.00;;;17.10;97.90;;;;;;5114056;28;20026;-76
2021/06/02 06:31:30;;;;;;;10.05;5.85;;;17.20;97.70;;;;;;5114807;28;20015;-79
2021/06/02 06:33:58;;;;;;;10.68;5.95;;;17.40;97.70;;;;;;5117518;28;20007;-79
2021/06/02 06:36:25;;;;;;;12.10;7.20;;;17.20;97.50;;;;;;5121304;28;20026;-77
2021/06/02 06:39:07;;;;;;;13.27;6.85;;;17.40;97.30;;;;;;5118540;28;20024;-76
2021/06/02 06:41:34;;;;;;;12.90;6.68;;;17.40;97.20;;;;;;5118035;28;20007;-75
2021/06/02 06:44:02;;;;;;;10.93;6.50;;;17.60;96.80;;;;;;5116186;28;20115;-77
2021/06/02 06:46:29;;;;;;;13.32;7.18;;;17.70;96.50;;;;;;5121018;28;20015;-77
2021/06/02 06:48:59;;;;;;;9.93;7.40;;;17.60;96.50;;;;;;5120219;28;20016;-77
2021/06/02 06:54:47;;;;;;;10.35;5.07;;;17.90;96.30;;;;;;5113620;28;20495;-81
2021/06/02 06:57:14;;;;;;;9.25;5.07;;;18.10;95.70;;;;;;5120768;28;20036;-83
2021/06/02 06:59:40;;;;;;;8.73;4.78;;;18.30;94.70;;;;;;5123105;28;20016;-79
2021/06/02 07:02:07;;;;;;;8.02;4.63;;;18.40;95.40;;;;;;5121762;28;20087;-83
2021/06/02 07:04:33;;;;;;;13.68;5.70;;;18.60;94.80;;;;;;5122036;28;20066;-84
2021/06/02 07:07:00;;;;;;;13.65;5.68;;;18.70;95.50;;;;;;5117447;28;20458;-82
2021/06/02 07:09:26;;;;;;;11.48;5.18;;;18.70;94.70;;;;;;5118462;28;20023;-85
2021/06/02 07:11:57;;;;;;;6.28;4.63;;;19.00;94.30;;;;;;5117913;28;19996;-83
2021/06/02 07:14:29;;;;;;;7.68;4.13;;;19.10;94.00;;;;;;5118093;28;20072;-84
2021/06/02 07:17:04;;;;;;;8.20;4.50;;;19.30;92.40;;;;;;5117864;28;20104;-84
2021/06/02 07:19:33;;;;;;;7.32;4.30;;;19.40;92.20;;;;;;5116011;28;20031;-83
2021/06/02 07:22:00;;;;;;;8.55;3.90;;;19.40;92.10;;;;;;5117901;28;20362;-78
2021/06/02 07:24:27;;;;;;;8.77;4.10;;;19.50;90.40;;;;;;5111390;28;20043;-77
2021/06/02 07:26:53;;;;;;;6.50;3.80;;;19.80;91.90;;;;;;5110632;28;20035;-76
2021/06/02 07:29:19;;;;;;;8.90;3.47;;;19.70;90.40;;;;;;5112599;28;20019;-78
2021/06/02 07:31:45;;;;;;;7.13;3.80;;;20.00;90.40;;;;;;5115452;28;20027;-82
2021/06/02 07:34:11;;;;;;;7.00;3.80;;;20.10;90.70;;;;;;5116787;28;20020;-80
2021/06/02 07:36:38;;;;;;;9.43;3.70;;;20.20;90.50;;;;;;5117899;28;20032;-82
2021/06/02 07:39:05;;;;;;;7.45;3.70;;;20.40;90.50;;;;;;5117533;28;20059;-81
2021/06/02 07:41:31;;;;;;;5.45;3.65;;;20.50;88.40;;;;;;5121827;28;20030;-78
2021/06/02 07:43:57;;;;;;;6.07;3.78;;;20.50;88.90;;;;;;5119593;28;20020;-81
2021/06/02 07:46:23;;;;;;;5.03;3.22;;;20.60;89.10;;;;;;5119816;28;20019;-80
2021/06/02 07:48:51;;;;;;;9.90;4.00;;;20.60;87.10;;;;;;5116498;28;20019;-82
2021/06/02 07:51:18;;;;;;;11.20;3.45;;;20.90;89.60;;;;;;5117596;28;20369;-83
2021/06/02 07:53:44;;;;;;;12.85;3.70;;;21.30;88.50;;;;;;5116985;28;20024;-80
2021/06/02 07:56:11;;;;;;;6.30;3.45;;;21.40;89.10;;;;;;5118304;28;20131;-79
2021/06/02 07:58:37;;;;;;;7.57;3.28;;;21.70;85.00;;;;;;5116552;28;20008;-78
2021/06/02 08:01:04;;;;;;;4.65;3.00;;;21.60;83.40;;;;;;5119271;28;20000;-87
2021/06/02 08:03:29;;;;;;;6.45;3.10;;;21.80;81.30;;;;;;5119057;28;20381;-80
2021/06/02 08:05:56;;;;;;;6.20;3.08;;;22.00;81.40;;;;;;5122016;28;20011;-85
2021/06/02 08:08:24;;;;;;;6.50;3.47;;;22.10;75.90;;;;;;5116216;28;20026;-86
2021/06/02 08:10:50;;;;;;;6.43;3.13;;;21.90;79.20;;;;;;5116723;28;20457;-79
2021/06/02 08:13:16;;;;;;;5.00;3.00;;;22.10;79.40;;;;;;5108781;28;20465;-80
2021/06/02 08:15:42;;;;;;;5.60;3.05;;;22.30;78.70;;;;;;5094542;28;20546;-78
2021/06/02 08:18:08;;;;;;;5.90;2.53;;;22.40;75.60;;;;;;5090179;28;20020;-79
2021/06/02 08:20:34;;;;;;;4.45;2.90;;;22.10;66.80;;;;;;5091180;28;20402;-79
2021/06/02 08:23:00;;;;;;;7.05;3.00;;;22.20;74.00;;;;;;5091120;28;20473;-79
2021/06/02 08:25:26;;;;;;;6.60;3.10;;;22.50;73.10;;;;;;5091147;28;20036;-81
2021/06/02 08:27:52;;;;;;;5.97;2.63;;;22.50;72.40;;;;;;5089774;28;20073;-81
2021/06/02 08:30:18;;;;;;;6.05;2.85;;;23.10;75.40;;;;;;5091430;28;20123;-86
2021/06/02 08:32:45;;;;;;;4.50;2.90;;;23.10;70.70;;;;;;5102428;28;20027;-87
2021/06/02 08:35:15;;;;;;;10.60;3.17;;;23.10;68.00;;;;;;5100962;28;20466;-85
2021/06/02 08:37:41;;;;;;;5.57;2.92;;;23.30;71.20;;;;;;5102053;28;20119;-83
2021/06/02 08:40:07;;;;;;;5.03;2.55;;;23.30;65.30;;;;;;5098188;28;20024;-83
2021/06/02 08:42:40;;;;;;;5.00;2.85;;;23.50;65.30;;;;;;5101280;28;20020;-84
2021/06/02 08:45:07;;;;;;;6.65;2.88;;;23.60;69.60;;;;;;5100731;28;20401;-84
2021/06/02 08:47:33;;;;;;;4.38;2.80;;;23.70;65.70;;;;;;5101724;28;20044;-84
2021/06/02 08:49:59;;;;;;;5.25;2.53;;;23.50;64.10;;;;;;5099136;28;20024;-79
2021/06/02 08:52:26;;;;;;;5.15;2.40;;;23.70;60.80;;;;;;5100428;28;20513;-87
2021/06/02 08:54:54;;;;;;;3.75;2.55;;;24.00;64.00;;;;;;5102095;28;20107;-87
2021/06/02 08:57:20;;;;;;;5.47;2.38;;;24.20;63.70;;;;;;5101595;28;20087;-88
2021/06/02 08:59:46;;;;;;;4.93;2.30;;;24.50;62.20;;;;;;5099082;28;20020;-85
2021/06/02 09:02:12;;;;;;;6.53;2.50;;;24.80;62.90;;;;;;5100939;28;20026;-86
2021/06/02 09:04:38;;;;;;;5.32;2.60;;;24.90;62.20;;;;;;5099293;28;20035;-79
2021/06/02 09:07:05;;;;;;;6.32;2.67;;;24.70;62.50;;;;;;5097363;28;20107;-79
2021/06/02 09:09:32;;;;;;;7.60;2.40;;;24.60;60.10;;;;;;5096986;28;20020;-77
2021/06/02 09:14:38;;;;;;;4.80;2.38;;;23.80;62.40;;;;;;5099649;28;20420;-81
2021/06/02 09:17:09;;;;;;;4.55;2.00;;;24.20;59.30;;;;;;5099130;28;20055;-83
2021/06/02 09:19:39;;;;;;;4.75;2.00;;;23.90;55.20;;;;;;5101864;28;20024;-85
2021/06/02 09:22:13;;;;;;;2.97;1.98;;;24.30;56.00;;;;;;5097382;28;20020;-86
2021/06/02 09:24:59;;;;;;;7.15;3.47;;;24.60;58.60;;;;;;5106445;28;20028;-82
2021/06/02 09:27:41;;;;;;;6.57;2.30;;;25.00;55.10;;;;;;5102978;28;20107;-82
2021/06/02 09:30:12;;;;;;;4.35;2.10;;;24.80;57.50;;;;;;5097473;28;20035;-78
2021/06/02 09:32:45;;;;;;;4.72;2.10;;;24.10;56.00;;;;;;5095830;28;20052;-84
2021/06/02 09:35:12;;;;;;;2.70;1.80;;;24.00;57.10;;;;;;5093925;28;20020;-83
2021/06/02 09:37:56;;;;;;;5.20;2.30;;;23.30;56.30;;;;;;5093751;28;20486;-82
2021/06/02 09:40:27;;;;;;;3.13;2.20;;;22.80;57.90;;;;;;5093966;28;20057;-82
2021/06/02 09:42:54;;;;;;;4.45;2.20;;;22.60;58.30;;;;;;5093561;28;20074;-80
2021/06/02 09:45:21;;;;;;;4.95;2.08;;;23.20;59.70;;;;;;5093046;28;20032;-81
2021/06/02 09:47:50;;;;;;;2.95;1.90;;;24.00;59.40;;;;;;5093477;28;20028;-81
2021/06/02 09:50:37;;;;;;;10.43;2.70;;;24.70;52.60;;;;;;5094411;28;20020;-83
2021/06/02 09:53:04;;;;;;;5.40;2.10;;;25.20;57.00;;;;;;5095255;28;20035;-80
2021/06/02 09:55:33;;;;;;;7.85;2.20;;;25.30;57.10;;;;;;5102453;28;20497;-80
2021/06/02 09:58:10;;;;;;;5.05;2.60;;;24.90;56.40;;;;;;5118177;28;20024;-80
2021/06/02 10:00:44;;;;;;;8.50;2.20;;;24.60;56.90;;;;;;5102855;28;20028;-78
2021/06/02 10:03:19;;;;;;;4.38;2.15;;;24.70;57.80;;;;;;5100372;28;20432;-79
2021/06/02 10:05:49;;;;;;;4.85;2.30;;;25.30;58.30;;;;;;5095484;28;20024;-77
2021/06/02 10:08:55;;;;;;;4.18;1.88;;;25.90;56.80;;;;;;5094288;28;20027;-81
2021/06/02 10:11:26;;;;;;;4.40;2.13;;;25.80;56.50;;;;;;5092419;28;20082;-81
2021/06/02 10:13:53;;;;;;;5.78;2.20;;;25.30;54.30;;;;;;5096652;28;20024;-81
2021/06/02 10:16:41;;;;;;;5.70;2.28;;;24.30;53.20;;;;;;5097378;28;20024;-80
2021/06/02 10:19:07;;;;;;;4.25;1.92;;;24.00;55.00;;;;;;5102971;28;20024;-78
2021/06/02 10:21:47;;;;;;;4.75;2.20;;;23.90;58.80;;;;;;5099457;28;20546;-80
2021/06/02 10:24:13;;;;;;;5.10;2.33;;;23.60;58.00;;;;;;5098023;28;20020;-84
2021/06/02 10:26:40;;;;;;;3.85;2.10;;;23.70;59.30;;;;;;5113980;28;20074;-83
2021/06/02 10:29:07;;;;;;;4.85;2.30;;;24.20;58.60;;;;;;5097399;28;20370;-83
2021/06/02 10:31:34;;;;;;;3.30;2.10;;;24.20;57.00;;;;;;5097949;28;20024;-82
2021/06/02 10:34:00;;;;;;;5.47;2.22;;;24.40;56.70;;;;;;5099349;28;20069;-86
2021/06/02 10:36:27;;;;;;;4.97;2.13;;;24.60;57.30;;;;;;5097645;28;20031;-87
2021/06/02 10:39:00;;;;;;;4.00;1.90;;;;;;;;;;5101283;28;20073;-84
2021/06/02 10:41:34;;;;;;;2.58;2.13;;;23.60;55.00;;;;;;5095526;28;20024;-86
2021/06/02 10:44:07;;;;;;;4.47;2.20;;;23.60;55.20;;;;;;5096691;28;20034;-84
2021/06/02 10:46:37;;;;;;;4.70;2.28;;;23.80;55.60;;;;;;5095083;28;20050;-84
2021/06/02 10:49:04;;;;;;;3.70;2.03;;;24.50;56.80;;;;;;5097197;28;20107;-86
2021/06/02 10:51:33;;;;;;;5.25;2.10;;;24.50;53.80;;;;;;5097146;28;20039;-81
2021/06/02 10:54:20;;;;;;;3.10;1.90;;;25.20;54.10;;;;;;5093969;28;20166;-80
2021/06/02 10:56:58;;;;;;;6.03;2.08;;;25.60;57.80;;;;;;5095604;28;20024;-82
2021/06/02 10:59:29;;;;;;;5.03;1.90;;;26.20;57.80;;;;;;5098365;28;20083;-80
2021/06/02 11:02:08;;;;;;;4.15;2.10;;;25.90;49.90;;;;;;5096405;28;20020;-83
2021/06/02 11:05:04;;;;;;;3.80;1.90;;;25.50;51.00;;;;;;5098190;28;20020;-85
2021/06/02 11:07:33;;;;;;;4.18;2.03;;;26.60;54.60;;;;;;5097624;28;20527;-80
2021/06/02 11:10:06;;;;;;;3.13;1.88;;;26.90;51.70;;;;;;5096513;28;20024;-85
2021/06/02 11:12:47;;;;;;;3.53;1.85;;;26.90;48.30;;;;;;5094609;28;20441;-85
2021/06/02 11:15:44;;;;;;;3.03;1.70;;;26.90;50.30;;;;;;5094939;28;20028;-85
2021/06/02 11:18:10;;;;;;;2.72;1.92;;;26.60;51.30;;;;;;5089804;28;20036;-81
2021/06/02 11:20:40;;;;;;;4.45;2.20;;;26.40;48.90;;;;;;5094524;28;20051;-85
2021/06/02 11:23:08;;;;;;;5.50;2.28;;;26.00;50.40;;;;;;5095591;28;20027;-85
2021/06/02 11:25:34;;;;;;;2.65;1.80;;;26.30;50.70;;;;;;5093143;28;20421;-85
2021/06/02 11:28:06;;;;;;;4.43;2.28;;;26.60;51.60;;;;;;5114675;28;20626;-84
2021/06/02 11:30:33;;;;;;;5.38;2.20;;;26.70;48.80;;;;;;5115850;28;20027;-84
2021/06/02 11:33:11;;;;;;;4.70;2.10;;;26.50;49.30;;;;;;5116130;28;20047;-85
2021/06/02 11:35:56;;;;;;;6.22;2.00;;;26.40;50.40;;;;;;5116537;28;20011;-84
2021/06/02 11:38:24;;;;;;;4.85;2.08;;;26.40;49.10;;;;;;5115055;28;20039;-80
2021/06/02 11:40:51;;;;;;;4.53;1.90;;;25.90;49.90;;;;;;5114144;28;20118;-80
2021/06/02 11:43:19;;;;;;;4.55;2.10;;;24.90;48.60;;;;;;5114155;28;20114;-85
2021/06/02 11:45:48;;;;;;;4.05;2.00;;;24.20;49.30;;;;;;5114283;28;20023;-84
2021/06/02 11:48:26;;;;;;;2.75;2.00;;;24.50;49.00;;;;;;5116275;28;20016;-84
2021/06/02 11:50:53;;;;;;;4.63;2.20;;;25.10;52.30;;;;;;5117485;28;20011;-84
2021/06/02 11:53:20;;;;;;;3.72;2.00;;;25.40;47.80;;;;;;5114511;28;20377;-84
2021/06/02 11:55:46;;;;;;;4.95;2.20;;;25.60;48.60;;;;;;5114039;28;20015;-83
2021/06/02 11:58:12;;;;;;;6.05;2.28;;;26.40;51.20;;;;;;5114084;28;20032;-83
2021/06/02 12:00:39;;;;;;;3.30;1.90;;;26.40;47.50;;;;;;5115008;28;20030;-83
2021/06/02 12:03:06;;;;;;;3.38;1.88;;;26.70;48.10;;;;;;5114833;28;20068;-83
2021/06/02 12:05:33;;;;;;;3.95;1.80;;;26.50;47.50;;;;;;5114614;28;20015;-80
2021/06/02 12:08:02;;;;;;;2.35;1.70;;;26.40;47.90;;;;;;5114199;28;20382;-86
2021/06/02 12:10:35;;;;;;;3.47;1.95;;;25.60;47.90;;;;;;5119313;28;20027;-82
2021/06/02 12:13:03;;;;;;;2.73;1.80;;;25.90;50.00;;;;;;5120121;27;20107;-84
2021/06/02 12:15:45;;;;;;;3.90;1.98;;;26.20;47.00;;;;;;5119594;28;20019;-84
2021/06/02 12:18:12;;;;;;;2.78;1.90;;;26.40;47.10;;;;;;5119371;28;20069;-83
2021/06/02 12:20:39;;;;;;;2.97;1.60;;;26.00;45.10;;;;;;5117839;28;20114;-82
2021/06/02 12:23:06;;;;;;;5.28;2.33;;;26.30;49.00;;;;;;5119804;28;20062;-80
2021/06/02 12:25:35;;;;;;;3.95;2.17;;;26.40;48.30;;;;;;5118756;27;20048;-82
2021/06/02 12:28:04;;;;;;;5.60;1.90;;;26.20;46.90;;;;;;5118489;28;20024;-84
2021/06/02 12:30:34;;;;;;;4.95;1.95;;;26.70;47.90;;;;;;5118330;28;20027;-81
2021/06/02 12:33:03;;;;;;;4.60;1.73;;;26.60;46.50;;;;;;5119445;28;20027;-80
2021/06/02 12:35:33;;;;;;;3.60;2.20;;;26.40;46.90;;;;;;5121377;28;20024;-81
2021/06/02 12:38:12;;;;;;;2.95;2.00;;;25.70;46.20;;;;;;5118960;28;20039;-80
2021/06/02 12:40:41;;;;;;;3.45;2.25;;;25.50;48.70;;;;;;5120810;28;20024;-81
2021/06/02 12:43:33;;;;;;;5.85;2.00;;;25.40;50.20;;;;;;5121099;28;20022;-81
2021/06/02 12:46:10;;;;;;;6.75;2.00;;;25.20;49.00;;;;;;5121686;28;20028;-82
2021/06/02 12:48:37;;;;;;;5.57;1.90;;;25.00;51.10;;;;;;5120232;28;20023;-82
2021/06/02 12:51:05;;;;;;;5.07;2.40;;;24.90;51.50;;;;;;5118021;28;20092;-83
2021/06/02 12:53:43;;;;;;;2.58;1.92;;;25.60;51.40;;;;;;5121387;28;20088;-81
2021/06/02 12:56:10;;;;;;;4.22;2.35;;;26.20;49.00;;;;;;5117656;28;20039;-83
2021/06/02 12:58:38;;;;;;;3.88;2.05;;;26.10;46.40;;;;;;5120755;28;20034;-82
2021/06/02 13:01:10;;;;;;;3.00;1.90;;;26.00;44.80;;;;;;5119849;28;20019;-83
2021/06/02 13:03:45;;;;;;;3.72;1.80;;;26.40;46.80;;;;;;5120287;28;20027;-83
2021/06/02 13:06:16;;;;;;;3.15;1.90;;;26.10;46.40;;;;;;5119851;28;20123;-80
2021/06/02 13:08:42;;;;;;;4.10;1.90;;;26.00;46.90;;;;;;5119087;28;20537;-81
2021/06/02 13:11:11;;;;;;;5.88;1.98;;;26.40;48.70;;;;;;5134809;27;20074;-82
2021/06/02 13:13:39;;;;;;;3.70;2.00;;;26.80;48.70;;;;;;5134724;27;20026;-81
2021/06/02 13:16:06;;;;;;;6.57;1.90;;;27.20;46.90;;;;;;5118351;28;20053;-81
2021/06/02 13:18:33;;;;;;;4.95;2.25;;;26.70;49.00;;;;;;5119059;28;20378;-81
2021/06/02 13:21:20;;;;;;;4.95;2.33;;;26.20;48.90;;;;;;5115397;28;20469;-81
2021/06/02 13:23:47;;;;;;;4.18;2.10;;;26.20;48.90;;;;;;5119271;28;20560;-81
2021/06/02 13:26:14;;;;;;;3.38;2.38;;;26.60;49.00;;;;;;5139837;27;20096;-80
2021/06/02 13:28:54;;;;;;;4.45;3.67;;;27.30;49.60;;;;;;5123924;28;20028;-81
2021/06/02 13:31:36;;;;;;;3.00;1.83;;;27.60;49.90;;;;;;5142188;27;20016;-80
2021/06/02 13:34:03;;;;;;;4.95;3.75;;;27.50;47.50;;;;;;5121982;28;20533;-81